Stevenson Ranch, California
Current Conditions -  °F | °C
As of 12:08 AM on Tuesday 27 Jan 2015 (Local Time) from KVNY Reporting Station
Overcast Overcast  
Wind Chill: 55°   Ceiling: 3300
Heat Index: 55°   Visibility: 10mi
Dew Point: 53°   Wind: 0mph
Humidity: 93%   Direction: NA
Pressure: 30.12"   Gusts: NA
Location:  34.38°N, 118.58°W
Report Text: KVNY 270808Z 00000KT 10SM FEW008 BKN033 OVC100 13/12 A3012 RMK AO2 T01280117
Loading
Personal Weather Stations






























Interactive Weather Map New forecast layout! Learn more

10-Day Weather Forecast

Advertisements
Track Severe Weather on mobile